Terminal Aerodrome Forecast
Issued by NWS

Home | Current Version | Previous Version | Text Only | Print | Product List | Glossary On
Versions: 1 2 3 4 5 6 7 8 9 10 11 12 13 14 15 16 17 18 19
000
FTUS43 KDDC 171120
TAFHYS
TAF
KHYS 171120Z 1712/1812 10010KT P6SM SKC
     FM171500 12012G18KT P6SM SKC
     FM180100 31025G39KT P6SM SKC=

USA.gov is the U.S. government's official web portal to all federal, state and local government web resources and services.